Погода Аблезкина неделю

Смоленская область, Россия

24 - 30 июля
  • 24июля
    Сегодня
    +12°
    +26°
    Практически безоблачно
    ВремяПогодаТемператураВлажностьДавлениеВетер, м/сВероятность осадков
    00:00Ясно и безоблачно+15°C86 %742 мм0.5 м/с2 %
    03:00Небольшая облачность+15°C88 %742 мм0.4 м/с2 %
    06:00Облачно с прояснениями+15°C83 %742 мм0.7 м/с2 %
    09:00Практически безоблачно+20°C64 %743 мм1.3 м/с2 %
    12:00Практически безоблачно+23°C45 %743 мм2.0 м/с3 %
    15:00Практически безоблачно+25°C37 %742 мм2.1 м/с2 %
    18:00Практически безоблачно+25°C34 %741 мм1.5 м/с2 %
    21:00Ясно и безоблачно+20°C51 %741 мм0.4 м/с2 %
  • 25июля
    Четверг
    +14°
    +27°
    Облачно с прояснениями
    ВремяПогодаТемператураВлажностьДавлениеВетер, м/сВероятность осадков
    00:00Ясно и безоблачно+16°C61 %741 мм0.2 м/с2 %
    03:00Ясно и безоблачно+13°C71 %741 мм0.1 м/с2 %
    06:00Ясно и безоблачно+14°C78 %740 мм0.4 м/с2 %
    09:00Ясно и безоблачно+22°C49 %741 мм1.1 м/с2 %
    12:00Облачно с прояснениями+25°C37 %740 мм1.7 м/с2 %
    15:00Облачно с прояснениями+26°C35 %740 мм1.5 м/с2 %
    18:00Облачно с прояснениями+26°C34 %739 мм1.5 м/с3 %
    21:00Практически безоблачно+21°C53 %739 мм0.7 м/с2 %
  • 26июля
    Пятница
    +12°
    +26°
    Пасмурно, дожди с грозами
    ВремяПогодаТемператураВлажностьДавлениеВетер, м/сВероятность осадков
    00:00Ясно и безоблачно+17°C78 %739 мм0.6 м/с2 %
    03:00Ясно и безоблачно+14°C91 %740 мм0.3 м/с2 %
    06:00Ясно и безоблачно+16°C89 %740 мм0.6 м/с2 %
    09:00Ясно и безоблачно+22°C64 %741 мм1.2 м/с2 %
    12:00Ясно и безоблачно+24°C53 %741 мм2.0 м/с11 %
    15:00Пасмурно, дожди с грозами+25°C46 %741 мм1.8 м/с34 %
    18:00Небольшая облачность, ливень+24°C70 %742 мм1.2 м/с55 %
    21:00Облачно с прояснениями+19°C81 %742 мм0.5 м/с10 %
  • 27июля
    Суббота
    +15°
    +27°
    Практически безоблачно
    ВремяПогодаТемператураВлажностьДавлениеВетер, м/сВероятность осадков
    00:00Ясно и безоблачно+15°C94 %743 мм0.2 м/с2 %
    03:00Ясно и безоблачно+13°C95 %743 мм0.2 м/с2 %
    06:00Ясно и безоблачно+15°C90 %744 мм0.7 м/с2 %
    09:00Ясно и безоблачно+21°C65 %745 мм0.9 м/с2 %
    12:00Небольшая облачность+24°C55 %745 мм1.6 м/с13 %
    15:00Практически безоблачно+26°C49 %745 мм2.2 м/с27 %
    18:00Практически безоблачно+26°C48 %744 мм1.6 м/с42 %
    21:00Практически безоблачно+21°C64 %745 мм0.7 м/с20 %
  • 28июля
    Воскресенье
    +16°
    +28°
    Облачно с прояснениями
    ВремяПогодаТемператураВлажностьДавлениеВетер, м/сВероятность осадков
    00:00Небольшая облачность+18°C80 %744 мм0.3 м/с2 %
    03:00Небольшая облачность+16°C90 %744 мм0.5 м/с2 %
    06:00Облачно с прояснениями+17°C85 %744 мм0.7 м/с2 %
    09:00Практически безоблачно+22°C68 %745 мм1.4 м/с3 %
    12:00Небольшая облачность+26°C52 %745 мм2.5 м/с19 %
    15:00Облачно с прояснениями+27°C41 %744 мм3.0 м/с17 %
    18:00Облачно с прояснениями+27°C40 %744 мм2.7 м/с18 %
    21:00Облачно с прояснениями+22°C61 %744 мм1.0 м/с17 %
Мы используем cookies
Соглашаюсь